Aviation Digital Data Service (ADDS)

Output produced by METARs form (1144 UTC 30 September 2016)
found at http://aviationweather.gov/adds/metars/
 
KFKL 301136Z 3012/0112 10011KT P6SM -SHRA OVC020 
     FM301600 10011G25KT P6SM VCSH OVC025 
     FM010200 10010KT 6SM -SHRA BKN025 
     FM010800 11009KT P6SM BKN010 AMD NOT SKED